sensor_id;sensor_type;location;lat;lon;timestamp;pressure;altitude;pressure_sealevel;temperature;humidity
9277;BME280;4676;42.678;23.244;2023-03-20T00:00:15;94406.75;;;4.80;100.00
9277;BME280;4676;42.678;23.244;2023-03-20T00:02:42;94410.13;;;4.76;100.00
9277;BME280;4676;42.678;23.244;2023-03-20T00:05:15;94408.56;;;4.69;100.00
9277;BME280;4676;42.678;23.244;2023-03-20T00:07:43;94406.09;;;4.66;100.00
9277;BME280;4676;42.678;23.244;2023-03-20T00:10:11;94396.97;;;4.61;100.00
9277;BME280;4676;42.678;23.244;2023-03-20T00:12:38;94360.13;;;4.61;100.00
9277;BME280;4676;42.678;23.244;2023-03-20T00:15:09;94394.22;;;4.77;100.00
9277;BME280;4676;42.678;23.244;2023-03-20T00:17:41;94367.69;;;4.58;100.00
9277;BME280;4676;42.678;23.244;2023-03-20T00:20:13;94392.75;;;4.63;100.00
9277;BME280;4676;42.678;23.244;2023-03-20T00:22:41;94352.94;;;4.34;100.00
9277;BME280;4676;42.678;23.244;2023-03-20T00:25:13;94392.66;;;4.70;100.00
9277;BME280;4676;42.678;23.244;2023-03-20T00:27:41;94387.72;;;4.63;100.00
9277;BME280;4676;42.678;23.244;2023-03-20T00:30:17;94377.69;;;4.61;100.00
9277;BME280;4676;42.678;23.244;2023-03-20T00:32:44;94382.84;;;4.52;100.00
9277;BME280;4676;42.678;23.244;2023-03-20T00:35:17;94372.94;;;4.41;100.00
9277;BME280;4676;42.678;23.244;2023-03-20T00:37:43;94390.50;;;4.40;100.00
9277;BME280;4676;42.678;23.244;2023-03-20T00:40:11;94382.22;;;4.35;100.00
9277;BME280;4676;42.678;23.244;2023-03-20T00:42:40;94382.31;;;4.26;100.00
9277;BME280;4676;42.678;23.244;2023-03-20T00:45:11;94384.84;;;4.24;100.00
9277;BME280;4676;42.678;23.244;2023-03-20T00:47:39;94378.19;;;4.22;100.00
9277;BME280;4676;42.678;23.244;2023-03-20T00:50:09;94355.78;;;4.05;100.00
9277;BME280;4676;42.678;23.244;2023-03-20T00:52:39;94378.22;;;4.19;100.00
9277;BME280;4676;42.678;23.244;2023-03-20T00:55:06;94381.53;;;4.21;100.00
9277;BME280;4676;42.678;23.244;2023-03-20T00:57:37;94320.91;;;3.85;100.00
9277;BME280;4676;42.678;23.244;2023-03-20T01:00:19;94337.44;;;4.01;100.00
9277;BME280;4676;42.678;23.244;2023-03-20T01:02:46;94375.66;;;4.25;100.00
9277;BME280;4676;42.678;23.244;2023-03-20T01:05:13;94366.41;;;4.27;100.00
9277;BME280;4676;42.678;23.244;2023-03-20T01:07:39;94358.97;;;4.21;100.00
9277;BME280;4676;42.678;23.244;2023-03-20T01:10:08;94368.16;;;4.20;100.00
9277;BME280;4676;42.678;23.244;2023-03-20T01:12:37;94367.38;;;4.17;100.00
9277;BME280;4676;42.678;23.244;2023-03-20T01:15:16;94364.88;;;4.15;100.00
9277;BME280;4676;42.678;23.244;2023-03-20T01:17:43;94360.81;;;4.08;100.00
9277;BME280;4676;42.678;23.244;2023-03-20T01:20:15;94353.28;;;4.08;100.00
9277;BME280;4676;42.678;23.244;2023-03-20T01:22:42;94354.88;;;4.12;100.00
9277;BME280;4676;42.678;23.244;2023-03-20T01:25:09;94327.56;;;3.88;100.00
9277;BME280;4676;42.678;23.244;2023-03-20T01:27:36;94344.97;;;4.03;100.00
9277;BME280;4676;42.678;23.244;2023-03-20T01:30:11;94350.81;;;4.02;100.00
9277;BME280;4676;42.678;23.244;2023-03-20T01:32:42;94348.22;;;4.10;100.00
9277;BME280;4676;42.678;23.244;2023-03-20T01:35:11;94344.22;;;3.96;100.00
9277;BME280;4676;42.678;23.244;2023-03-20T01:37:38;94354.94;;;4.08;100.00
9277;BME280;4676;42.678;23.244;2023-03-20T01:40:12;94353.34;;;4.00;100.00
9277;BME280;4676;42.678;23.244;2023-03-20T01:42:42;94357.47;;;4.08;100.00
9277;BME280;4676;42.678;23.244;2023-03-20T01:45:14;94358.38;;;3.99;100.00
9277;BME280;4676;42.678;23.244;2023-03-20T01:47:43;94367.63;;;3.92;100.00
9277;BME280;4676;42.678;23.244;2023-03-20T01:50:26;94343.47;;;3.87;100.00
9277;BME280;4676;42.678;23.244;2023-03-20T01:52:58;94366.00;;;3.88;100.00
9277;BME280;4676;42.678;23.244;2023-03-20T01:55:27;94372.66;;;3.91;100.00
9277;BME280;4676;42.678;23.244;2023-03-20T01:57:56;94361.88;;;3.84;100.00
9277;BME280;4676;42.678;23.244;2023-03-20T02:00:24;94366.03;;;3.85;100.00
9277;BME280;4676;42.678;23.244;2023-03-20T02:02:52;94366.03;;;3.84;100.00
9277;BME280;4676;42.678;23.244;2023-03-20T02:05:20;94361.78;;;3.92;100.00
9277;BME280;4676;42.678;23.244;2023-03-20T02:07:53;94361.88;;;3.84;100.00
9277;BME280;4676;42.678;23.244;2023-03-20T02:10:21;94356.88;;;3.83;100.00
9277;BME280;4676;42.678;23.244;2023-03-20T02:12:48;94353.53;;;3.82;100.00
9277;BME280;4676;42.678;23.244;2023-03-20T02:15:16;94354.41;;;3.77;100.00
9277;BME280;4676;42.678;23.244;2023-03-20T02:17:43;94357.69;;;3.86;100.00
9277;BME280;4676;42.678;23.244;2023-03-20T02:20:19;94350.13;;;3.89;100.00
9277;BME280;4676;42.678;23.244;2023-03-20T02:23:14;94366.00;;;3.88;100.00
9277;BME280;4676;42.678;23.244;2023-03-20T02:26:06;94361.94;;;3.77;100.00
9277;BME280;4676;42.678;23.244;2023-03-20T02:29:02;94360.13;;;3.91;100.00
9277;BME280;4676;42.678;23.244;2023-03-20T02:35:07;94357.88;;;3.68;100.00
9277;BME280;4676;42.678;23.244;2023-03-20T02:37:55;94353.72;;;3.64;100.00
9277;BME280;4676;42.678;23.244;2023-03-20T02:40:31;94352.94;;;3.58;100.00
9277;BME280;4676;42.678;23.244;2023-03-20T02:43:05;94344.47;;;3.71;100.00
9277;BME280;4676;42.678;23.244;2023-03-20T02:45:42;94357.00;;;3.71;100.00
9277;BME280;4676;42.678;23.244;2023-03-20T02:48:17;94352.94;;;3.58;100.00
9277;BME280;4676;42.678;23.244;2023-03-20T02:50:48;94354.53;;;3.69;100.00
9277;BME280;4676;42.678;23.244;2023-03-20T02:53:25;94352.13;;;3.57;100.00
9277;BME280;4676;42.678;23.244;2023-03-20T02:56:01;94350.50;;;3.51;100.00
9277;BME280;4676;42.678;23.244;2023-03-20T02:58:37;94340.59;;;3.41;100.00
9277;BME280;4676;42.678;23.244;2023-03-20T03:01:09;94348.97;;;3.37;100.00
9277;BME280;4676;42.678;23.244;2023-03-20T03:03:43;94350.63;;;3.39;100.00
9277;BME280;4676;42.678;23.244;2023-03-20T03:06:17;94345.56;;;3.44;100.00
9277;BME280;4676;42.678;23.244;2023-03-20T03:08:51;94350.53;;;3.47;100.00
9277;BME280;4676;42.678;23.244;2023-03-20T03:11:20;94348.88;;;3.46;100.00
9277;BME280;4676;42.678;23.244;2023-03-20T03:13:50;94338.91;;;3.38;100.00
9277;BME280;4676;42.678;23.244;2023-03-20T03:16:20;94342.19;;;3.46;100.00
9277;BME280;4676;42.678;23.244;2023-03-20T03:18:50;94345.56;;;3.44;100.00
9277;BME280;4676;42.678;23.244;2023-03-20T03:21:20;94308.13;;;3.27;100.00
9277;BME280;4676;42.678;23.244;2023-03-20T03:23:49;94339.75;;;3.40;100.00
9277;BME280;4676;42.678;23.244;2023-03-20T03:26:19;94317.13;;;3.49;100.00
9277;BME280;4676;42.678;23.244;2023-03-20T03:28:49;94342.91;;;3.59;100.00
9277;BME280;4676;42.678;23.244;2023-03-20T03:31:17;94340.50;;;3.50;100.00
9277;BME280;4676;42.678;23.244;2023-03-20T03:33:49;94308.13;;;3.29;100.00
9277;BME280;4676;42.678;23.244;2023-03-20T03:36:24;94279.09;;;3.07;100.00
9277;BME280;4676;42.678;23.244;2023-03-20T03:38:58;94351.41;;;3.44;100.00
9277;BME280;4676;42.678;23.244;2023-03-20T03:41:29;94348.13;;;3.35;100.00
9277;BME280;4676;42.678;23.244;2023-03-20T03:44:06;94348.16;;;3.32;100.00
9277;BME280;4676;42.678;23.244;2023-03-20T03:46:40;94337.38;;;3.24;100.00
9277;BME280;4676;42.678;23.244;2023-03-20T03:49:13;94340.78;;;3.20;100.00
9277;BME280;4676;42.678;23.244;2023-03-20T03:51:42;94339.91;;;3.22;100.00
9277;BME280;4676;42.678;23.244;2023-03-20T03:54:15;94334.75;;;3.39;100.00
9277;BME280;4676;42.678;23.244;2023-03-20T03:56:45;94333.09;;;3.36;100.00
9277;BME280;4676;42.678;23.244;2023-03-20T03:59:18;94324.78;;;3.31;100.00
9277;BME280;4676;42.678;23.244;2023-03-20T04:01:46;94327.31;;;3.30;100.00
9277;BME280;4676;42.678;23.244;2023-03-20T04:04:15;94324.06;;;3.22;100.00
9277;BME280;4676;42.678;23.244;2023-03-20T04:06:44;94328.25;;;3.18;100.00
9277;BME280;4676;42.678;23.244;2023-03-20T04:09:12;94333.13;;;3.33;100.00
9277;BME280;4676;42.678;23.244;2023-03-20T04:11:39;94327.16;;;3.46;100.00
9277;BME280;4676;42.678;23.244;2023-03-20T04:14:05;94328.94;;;3.35;100.00
9277;BME280;4676;42.678;23.244;2023-03-20T04:16:32;94315.59;;;3.33;100.00
9277;BME280;4676;42.678;23.244;2023-03-20T04:18:59;94311.50;;;3.26;100.00
9277;BME280;4676;42.678;23.244;2023-03-20T04:21:25;94311.53;;;3.23;100.00
9277;BME280;4676;42.678;23.244;2023-03-20T04:23:52;94287.38;;;3.13;100.00
9277;BME280;4676;42.678;23.244;2023-03-20T04:26:20;94318.16;;;3.29;100.00
9277;BME280;4676;42.678;23.244;2023-03-20T04:28:47;94312.44;;;3.16;100.00
9277;BME280;4676;42.678;23.244;2023-03-20T04:31:14;94309.06;;;3.17;100.00
9277;BME280;4676;42.678;23.244;2023-03-20T04:33:42;94316.34;;;3.43;100.00
9277;BME280;4676;42.678;23.244;2023-03-20T04:36:09;94318.19;;;3.26;100.00
9277;BME280;4676;42.678;23.244;2023-03-20T04:38:35;94327.44;;;3.16;100.00
9277;BME280;4676;42.678;23.244;2023-03-20T04:41:03;94329.81;;;3.31;100.00
9277;BME280;4676;42.678;23.244;2023-03-20T04:43:31;94340.53;;;3.47;100.00
9277;BME280;4676;42.678;23.244;2023-03-20T04:45:58;94342.22;;;3.42;100.00
9277;BME280;4676;42.678;23.244;2023-03-20T04:48:25;94348.91;;;3.43;100.00
9277;BME280;4676;42.678;23.244;2023-03-20T04:50:52;94359.69;;;3.51;100.00
9277;BME280;4676;42.678;23.244;2023-03-20T04:53:19;94329.84;;;3.30;100.00
9277;BME280;4676;42.678;23.244;2023-03-20T04:55:45;94363.81;;;3.57;100.00
9277;BME280;4676;42.678;23.244;2023-03-20T04:58:14;94359.63;;;3.57;100.00
9277;BME280;4676;42.678;23.244;2023-03-20T05:00:42;94357.13;;;3.59;100.00
9277;BME280;4676;42.678;23.244;2023-03-20T05:03:09;94357.09;;;3.62;100.00
9277;BME280;4676;42.678;23.244;2023-03-20T05:05:35;94356.19;;;3.67;100.00
9277;BME280;4676;42.678;23.244;2023-03-20T05:08:03;94356.94;;;3.78;100.00
9277;BME280;4676;42.678;23.244;2023-03-20T05:10:30;94360.09;;;3.97;100.00
9277;BME280;4676;42.678;23.244;2023-03-20T05:12:57;94353.47;;;3.90;100.00
9277;BME280;4676;42.678;23.244;2023-03-20T05:15:23;94362.59;;;3.97;100.00
9277;BME280;4676;42.678;23.244;2023-03-20T05:17:52;94369.03;;;4.16;100.00
9277;BME280;4676;42.678;23.244;2023-03-20T05:20:19;94348.16;;;4.16;100.00
9277;BME280;4676;42.678;23.244;2023-03-20T05:22:47;94358.63;;;4.49;100.00
9277;BME280;4676;42.678;23.244;2023-03-20T05:25:14;94366.00;;;4.60;100.00
9277;BME280;4676;42.678;23.244;2023-03-20T05:27:43;94363.41;;;4.66;100.00
9277;BME280;4676;42.678;23.244;2023-03-20T05:30:11;94370.94;;;4.68;100.00
9277;BME280;4676;42.678;23.244;2023-03-20T05:32:38;94363.38;;;4.71;100.00
9277;BME280;4676;42.678;23.244;2023-03-20T05:35:08;94368.34;;;4.72;100.00
9277;BME280;4676;42.678;23.244;2023-03-20T05:37:35;94364.94;;;4.76;100.00
9277;BME280;4676;42.678;23.244;2023-03-20T05:40:02;94375.69;;;4.87;100.00
9277;BME280;4676;42.678;23.244;2023-03-20T05:42:28;94370.50;;;4.98;100.00
9277;BME280;4676;42.678;23.244;2023-03-20T05:44:55;94367.78;;;5.12;100.00
9277;BME280;4676;42.678;23.244;2023-03-20T05:47:22;94368.47;;;5.23;100.00
9277;BME280;4676;42.678;23.244;2023-03-20T05:49:48;94364.91;;;5.36;100.00
9277;BME280;4676;42.678;23.244;2023-03-20T05:52:17;94375.41;;;5.59;100.00
9277;BME280;4676;42.678;23.244;2023-03-20T05:54:43;94368.56;;;5.67;100.00
9277;BME280;4676;42.678;23.244;2023-03-20T05:57:10;94373.41;;;5.79;100.00
9277;BME280;4676;42.678;23.244;2023-03-20T05:59:36;94375.63;;;5.96;100.00
9277;BME280;4676;42.678;23.244;2023-03-20T06:02:03;94370.22;;;6.17;100.00
9277;BME280;4676;42.678;23.244;2023-03-20T06:04:30;94364.47;;;6.53;100.00
9277;BME280;4676;42.678;23.244;2023-03-20T06:06:57;94365.88;;;6.65;100.00
9277;BME280;4676;42.678;23.244;2023-03-20T06:09:25;94306.66;;;6.47;100.00
9277;BME280;4676;42.678;23.244;2023-03-20T06:11:52;94369.22;;;6.66;100.00
9277;BME280;4676;42.678;23.244;2023-03-20T06:14:18;94367.59;;;6.65;100.00
9277;BME280;4676;42.678;23.244;2023-03-20T06:16:45;94373.84;;;6.45;100.00
9277;BME280;4676;42.678;23.244;2023-03-20T06:19:12;94371.97;;;6.55;100.00
9277;BME280;4676;42.678;23.244;2023-03-20T06:21:38;94366.00;;;6.61;100.00
9277;BME280;4676;42.678;23.244;2023-03-20T06:24:06;94364.97;;;6.69;100.00
9277;BME280;4676;42.678;23.244;2023-03-20T06:26:34;94373.94;;;6.82;100.00
9277;BME280;4676;42.678;23.244;2023-03-20T06:29:01;94375.56;;;6.85;100.00
9277;BME280;4676;42.678;23.244;2023-03-20T06:31:28;94382.75;;;7.01;100.00
9277;BME280;4676;42.678;23.244;2023-03-20T06:33:54;94372.66;;;7.01;100.00
9277;BME280;4676;42.678;23.244;2023-03-20T06:36:22;94380.91;;;7.08;100.00
9277;BME280;4676;42.678;23.244;2023-03-20T06:38:48;94383.19;;;7.19;100.00
9277;BME280;4676;42.678;23.244;2023-03-20T06:41:15;94388.69;;;7.36;98.04
9277;BME280;4676;42.678;23.244;2023-03-20T06:43:44;94388.47;;;7.45;96.65
9277;BME280;4676;42.678;23.244;2023-03-20T06:46:10;94383.38;;;7.46;95.94
9277;BME280;4676;42.678;23.244;2023-03-20T06:48:37;94378.91;;;7.59;95.35
9277;BME280;4676;42.678;23.244;2023-03-20T06:51:04;94381.25;;;7.67;93.72
9277;BME280;4676;42.678;23.244;2023-03-20T06:53:30;94380.25;;;7.72;93.23
9277;BME280;4676;42.678;23.244;2023-03-20T06:55:57;94363.28;;;7.79;94.30
9277;BME280;4676;42.678;23.244;2023-03-20T06:58:24;94369.19;;;8.10;94.82
9277;BME280;4676;42.678;23.244;2023-03-20T07:00:52;94373.06;;;8.23;92.42
9277;BME280;4676;42.678;23.244;2023-03-20T07:03:19;94377.97;;;8.28;89.43
9277;BME280;4676;42.678;23.244;2023-03-20T07:05:46;94375.44;;;8.28;88.32
9277;BME280;4676;42.678;23.244;2023-03-20T07:08:13;94372.91;;;8.28;87.47
9277;BME280;4676;42.678;23.244;2023-03-20T07:10:40;94377.59;;;8.43;85.86
9277;BME280;4676;42.678;23.244;2023-03-20T07:13:07;94363.56;;;8.33;85.36
9277;BME280;4676;42.678;23.244;2023-03-20T07:15:34;94366.53;;;8.15;87.47
9277;BME280;4676;42.678;23.244;2023-03-20T07:18:03;94366.78;;;8.38;88.87
9277;BME280;4676;42.678;23.244;2023-03-20T07:20:29;94359.66;;;8.52;88.27
9277;BME280;4676;42.678;23.244;2023-03-20T07:22:56;94364.75;;;8.80;88.51
9277;BME280;4676;42.678;23.244;2023-03-20T07:25:23;94365.84;;;8.71;86.10
9277;BME280;4676;42.678;23.244;2023-03-20T07:27:50;94363.97;;;8.78;86.24
9277;BME280;4676;42.678;23.244;2023-03-20T07:30:17;94368.38;;;8.71;83.71
9277;BME280;4676;42.678;23.244;2023-03-20T07:32:44;94361.72;;;8.69;83.60
9277;BME280;4676;42.678;23.244;2023-03-20T07:35:14;94375.53;;;8.86;82.85
9277;BME280;4676;42.678;23.244;2023-03-20T07:37:40;94368.53;;;8.94;81.89
9277;BME280;4676;42.678;23.244;2023-03-20T07:40:08;94368.53;;;8.94;80.76
9277;BME280;4676;42.678;23.244;2023-03-20T07:42:35;94371.66;;;9.02;81.40
9277;BME280;4676;42.678;23.244;2023-03-20T07:45:02;94364.72;;;9.09;79.63
9277;BME280;4676;42.678;23.244;2023-03-20T07:47:29;94372.06;;;9.18;80.04
9277;BME280;4676;42.678;23.244;2023-03-20T07:49:56;94378.97;;;9.39;80.70
9277;BME280;4676;42.678;23.244;2023-03-20T07:52:24;94373.28;;;9.59;78.58
9277;BME280;4676;42.678;23.244;2023-03-20T07:54:51;94369.59;;;9.69;79.86
9277;BME280;4676;42.678;23.244;2023-03-20T07:57:17;94364.88;;;9.85;79.77
9277;BME280;4676;42.678;23.244;2023-03-20T07:59:44;94374.47;;;10.00;75.53
9277;BME280;4676;42.678;23.244;2023-03-20T08:02:13;94370.22;;;10.00;75.86
9277;BME280;4676;42.678;23.244;2023-03-20T08:04:41;94363.06;;;10.13;74.94
9277;BME280;4676;42.678;23.244;2023-03-20T08:07:07;94365.28;;;10.24;74.28
9277;BME280;4676;42.678;23.244;2023-03-20T08:09:36;94365.78;;;10.33;72.12
9277;BME280;4676;42.678;23.244;2023-03-20T08:12:02;94362.38;;;10.34;72.77
9277;BME280;4676;42.678;23.244;2023-03-20T08:14:29;94362.16;;;10.40;72.74
9277;BME280;4676;42.678;23.244;2023-03-20T08:16:56;94340.97;;;10.41;72.11
9277;BME280;4676;42.678;23.244;2023-03-20T08:19:23;94363.47;;;10.50;70.48
9277;BME280;4676;42.678;23.244;2023-03-20T08:21:50;94365.22;;;10.48;70.06
9277;BME280;4676;42.678;23.244;2023-03-20T08:24:17;94367.28;;;10.62;70.57
9277;BME280;4676;42.678;23.244;2023-03-20T08:26:46;94368.19;;;10.60;69.55
9277;BME280;4676;42.678;23.244;2023-03-20T08:29:12;94371.56;;;10.60;68.83
9277;BME280;4676;42.678;23.244;2023-03-20T08:31:41;94373.41;;;10.80;71.66
9277;BME280;4676;42.678;23.244;2023-03-20T08:34:08;94375.53;;;10.90;67.98
9277;BME280;4676;42.678;23.244;2023-03-20T08:36:35;94378.84;;;10.92;67.79
9277;BME280;4676;42.678;23.244;2023-03-20T08:39:02;94374.78;;;11.10;69.42
9277;BME280;4676;42.678;23.244;2023-03-20T08:41:28;94366.53;;;11.27;66.49
9277;BME280;4676;42.678;23.244;2023-03-20T08:43:56;94369.78;;;11.30;65.27
9277;BME280;4676;42.678;23.244;2023-03-20T08:46:23;94373.41;;;11.46;64.59
9277;BME280;4676;42.678;23.244;2023-03-20T08:48:50;94373.41;;;11.46;63.35
9277;BME280;4676;42.678;23.244;2023-03-20T08:51:16;94363.94;;;11.50;64.52
9277;BME280;4676;42.678;23.244;2023-03-20T08:53:43;94368.28;;;11.68;63.54
9277;BME280;4676;42.678;23.244;2023-03-20T08:56:10;94367.66;;;11.85;62.31
9277;BME280;4676;42.678;23.244;2023-03-20T08:58:37;94368.28;;;11.90;61.00
9277;BME280;4676;42.678;23.244;2023-03-20T09:01:06;94369.94;;;11.91;60.27
9277;BME280;4676;42.678;23.244;2023-03-20T09:03:34;94371.28;;;11.99;60.20
9277;BME280;4676;42.678;23.244;2023-03-20T09:06:04;94344.81;;;11.85;62.10
9277;BME280;4676;42.678;23.244;2023-03-20T09:08:31;94358.56;;;12.20;61.88
9277;BME280;4676;42.678;23.244;2023-03-20T09:10:57;94360.13;;;12.42;62.14
9277;BME280;4676;42.678;23.244;2023-03-20T09:13:25;94357.97;;;12.53;60.45
9277;BME280;4676;42.678;23.244;2023-03-20T09:15:51;94348.03;;;12.86;59.87
9277;BME280;4676;42.678;23.244;2023-03-20T09:18:20;94347.75;;;12.92;60.65
9277;BME280;4676;42.678;23.244;2023-03-20T09:20:47;94343.50;;;12.93;58.73
9277;BME280;4676;42.678;23.244;2023-03-20T09:23:14;94320.59;;;12.74;59.24
9277;BME280;4676;42.678;23.244;2023-03-20T09:25:41;94348.00;;;12.68;57.64
9277;BME280;4676;42.678;23.244;2023-03-20T09:28:08;94339.44;;;12.89;57.79
9277;BME280;4676;42.678;23.244;2023-03-20T09:30:35;94330.56;;;12.97;58.70
9277;BME280;4676;42.678;23.244;2023-03-20T09:33:02;94305.34;;;12.93;57.23
9277;BME280;4676;42.678;23.244;2023-03-20T09:35:30;94331.13;;;13.23;56.55
9277;BME280;4676;42.678;23.244;2023-03-20T09:37:57;94323.22;;;13.46;58.10
9277;BME280;4676;42.678;23.244;2023-03-20T09:43:02;94324.00;;;13.65;56.46
9277;BME280;4676;42.678;23.244;2023-03-20T09:45:42;94315.41;;;13.68;56.38
9277;BME280;4676;42.678;23.244;2023-03-20T09:48:18;94315.75;;;13.94;55.26
9277;BME280;4676;42.678;23.244;2023-03-20T09:50:54;94301.06;;;13.99;55.34
9277;BME280;4676;42.678;23.244;2023-03-20T09:53:27;94298.53;;;13.99;55.66
9277;BME280;4676;42.678;23.244;2023-03-20T09:55:58;94298.66;;;14.14;53.53
9277;BME280;4676;42.678;23.244;2023-03-20T09:58:26;94289.44;;;14.11;54.03
9277;BME280;4676;42.678;23.244;2023-03-20T10:00:57;94288.19;;;13.85;53.19
9277;BME280;4676;42.678;23.244;2023-03-20T10:03:27;94273.22;;;13.96;53.37
9277;BME280;4676;42.678;23.244;2023-03-20T10:06:03;94279.09;;;14.14;53.17
9277;BME280;4676;42.678;23.244;2023-03-20T10:08:33;94263.09;;;14.28;53.60
9277;BME280;4676;42.678;23.244;2023-03-20T10:11:13;94260.84;;;14.39;53.34
9277;BME280;4676;42.678;23.244;2023-03-20T10:13:50;94245.63;;;14.53;52.43
9277;BME280;4676;42.678;23.244;2023-03-20T10:16:26;94262.19;;;14.62;52.88
9277;BME280;4676;42.678;23.244;2023-03-20T10:19:02;94263.28;;;14.73;50.66
9277;BME280;4676;42.678;23.244;2023-03-20T10:21:37;94264.31;;;14.85;50.22
9277;BME280;4676;42.678;23.244;2023-03-20T10:24:06;94265.47;;;15.11;51.46
9277;BME280;4676;42.678;23.244;2023-03-20T10:26:40;94259.69;;;15.54;52.32
9277;BME280;4676;42.678;23.244;2023-03-20T10:29:15;94248.84;;;15.65;51.19
9277;BME280;4676;42.678;23.244;2023-03-20T10:31:50;94247.88;;;15.81;50.61
9277;BME280;4676;42.678;23.244;2023-03-20T10:34:30;94252.47;;;16.05;49.06
9277;BME280;4676;42.678;23.244;2023-03-20T10:37:10;94245.72;;;16.18;48.47
9277;BME280;4676;42.678;23.244;2023-03-20T10:39:48;94248.81;;;16.09;46.43
9277;BME280;4676;42.678;23.244;2023-03-20T10:42:20;94250.84;;;16.04;47.60
9277;BME280;4676;42.678;23.244;2023-03-20T10:44:53;94231.28;;;16.31;49.52
9277;BME280;4676;42.678;23.244;2023-03-20T10:47:23;94229.63;;;16.44;47.76
9277;BME280;4676;42.678;23.244;2023-03-20T10:49:54;94225.72;;;16.53;46.21
9277;BME280;4676;42.678;23.244;2023-03-20T10:52:27;94228.09;;;16.41;45.82
9277;BME280;4676;42.678;23.244;2023-03-20T10:54:59;94215.22;;;16.57;45.58
9277;BME280;4676;42.678;23.244;2023-03-20T10:57:28;94215.50;;;16.67;46.15
9277;BME280;4676;42.678;23.244;2023-03-20T10:59:57;94205.72;;;16.59;44.94
9277;BME280;4676;42.678;23.244;2023-03-20T11:02:27;94181.88;;;16.59;45.18
9277;BME280;4676;42.678;23.244;2023-03-20T11:04:53;94211.63;;;16.74;44.75
9277;BME280;4676;42.678;23.244;2023-03-20T11:07:24;94204.66;;;16.76;44.44
9277;BME280;4676;42.678;23.244;2023-03-20T11:10:10;94204.69;;;17.03;44.06
9277;BME280;4676;42.678;23.244;2023-03-20T11:12:39;94180.50;;;17.07;44.28
9277;BME280;4676;42.678;23.244;2023-03-20T11:15:18;94198.22;;;16.97;43.58
9277;BME280;4676;42.678;23.244;2023-03-20T11:17:51;94192.22;;;17.11;43.81
9277;BME280;4676;42.678;23.244;2023-03-20T11:20:17;94194.78;;;17.11;43.13
9277;BME280;4676;42.678;23.244;2023-03-20T11:22:47;94163.28;;;17.23;43.61
9277;BME280;4676;42.678;23.244;2023-03-20T11:25:23;94185.97;;;17.54;44.31
9277;BME280;4676;42.678;23.244;2023-03-20T11:27:50;94169.22;;;17.75;41.53
9277;BME280;4676;42.678;23.244;2023-03-20T11:30:20;94176.16;;;17.61;41.44
9277;BME280;4676;42.678;23.244;2023-03-20T11:32:48;94176.38;;;17.70;42.14
9277;BME280;4676;42.678;23.244;2023-03-20T11:35:21;94169.63;;;17.69;41.45
9277;BME280;4676;42.678;23.244;2023-03-20T11:37:55;94160.19;;;17.82;41.51
9277;BME280;4676;42.678;23.244;2023-03-20T11:40:32;94160.28;;;17.93;41.41
9277;BME280;4676;42.678;23.244;2023-03-20T11:43:03;94153.41;;;18.07;41.88
9277;BME280;4676;42.678;23.244;2023-03-20T11:45:33;94144.94;;;18.30;41.31
9277;BME280;4676;42.678;23.244;2023-03-20T11:48:00;94144.94;;;18.30;39.21
9277;BME280;4676;42.678;23.244;2023-03-20T11:50:30;94138.28;;;18.40;40.08
9277;BME280;4676;42.678;23.244;2023-03-20T11:52:59;94133.22;;;18.51;41.62
9277;BME280;4676;42.678;23.244;2023-03-20T11:55:28;94140.22;;;18.73;39.14
9277;BME280;4676;42.678;23.244;2023-03-20T11:57:57;94135.59;;;18.78;38.33
9277;BME280;4676;42.678;23.244;2023-03-20T12:00:26;94130.72;;;18.86;38.62
9277;BME280;4676;42.678;23.244;2023-03-20T12:02:54;94129.03;;;18.74;38.72
9277;BME280;4676;42.678;23.244;2023-03-20T12:05:30;94123.69;;;18.77;38.90
9277;BME280;4676;42.678;23.244;2023-03-20T12:08:01;94122.00;;;18.88;38.92
9277;BME280;4676;42.678;23.244;2023-03-20T12:10:34;94108.16;;;19.02;38.77
9277;BME280;4676;42.678;23.244;2023-03-20T12:13:05;94097.34;;;19.10;38.95
9277;BME280;4676;42.678;23.244;2023-03-20T12:15:40;94102.97;;;19.26;39.13
9277;BME280;4676;42.678;23.244;2023-03-20T12:18:12;94104.72;;;19.49;38.37
9277;BME280;4676;42.678;23.244;2023-03-20T12:20:45;94098.19;;;19.56;37.57
9277;BME280;4676;42.678;23.244;2023-03-20T12:23:23;94107.50;;;19.57;36.99
9277;BME280;4676;42.678;23.244;2023-03-20T12:25:58;94086.91;;;19.35;36.39
9277;BME280;4676;42.678;23.244;2023-03-20T12:28:32;94093.47;;;19.50;36.75
9277;BME280;4676;42.678;23.244;2023-03-20T12:31:05;94098.38;;;19.53;36.37
9277;BME280;4676;42.678;23.244;2023-03-20T12:33:42;94098.03;;;19.47;35.62
9277;BME280;4676;42.678;23.244;2023-03-20T12:36:14;94094.44;;;19.49;35.82
9277;BME280;4676;42.678;23.244;2023-03-20T12:38:43;94092.00;;;19.59;36.37
9277;BME280;4676;42.678;23.244;2023-03-20T12:41:13;94071.16;;;19.51;34.94
9277;BME280;4676;42.678;23.244;2023-03-20T12:46:35;94017.06;;;19.41;35.03
9277;BME280;4676;42.678;23.244;2023-03-20T12:49:13;94077.75;;;19.66;32.52
9277;BME280;4676;42.678;23.244;2023-03-20T12:51:53;94077.22;;;19.50;33.32
9277;BME280;4676;42.678;23.244;2023-03-20T12:54:38;94063.34;;;19.52;34.02
9277;BME280;4676;42.678;23.244;2023-03-20T12:57:17;94060.19;;;19.71;34.61
9277;BME280;4676;42.678;23.244;2023-03-20T13:00:11;94059.38;;;19.92;36.01
9277;BME280;4676;42.678;23.244;2023-03-20T13:02:51;94058.22;;;19.97;33.22
9277;BME280;4676;42.678;23.244;2023-03-20T13:05:30;94052.81;;;20.00;33.07
9277;BME280;4676;42.678;23.244;2023-03-20T13:08:11;94055.41;;;20.00;32.61
9277;BME280;4676;42.678;23.244;2023-03-20T13:10:48;94056.47;;;19.97;32.51
9277;BME280;4676;42.678;23.244;2023-03-20T13:13:25;94052.00;;;19.88;31.47
9277;BME280;4676;42.678;23.244;2023-03-20T13:16:04;94030.72;;;19.97;31.99
9277;BME280;4676;42.678;23.244;2023-03-20T13:18:39;94045.00;;;20.01;31.65
9277;BME280;4676;42.678;23.244;2023-03-20T13:21:14;94037.88;;;20.05;32.99
9277;BME280;4676;42.678;23.244;2023-03-20T13:23:45;94035.63;;;20.00;31.34
9277;BME280;4676;42.678;23.244;2023-03-20T13:26:23;94035.75;;;19.99;30.95
9277;BME280;4676;42.678;23.244;2023-03-20T13:28:57;94028.41;;;19.94;30.95
9277;BME280;4676;42.678;23.244;2023-03-20T13:31:35;94024.31;;;19.80;30.14
9277;BME280;4676;42.678;23.244;2023-03-20T13:34:14;94026.53;;;19.85;31.40
9277;BME280;4676;42.678;23.244;2023-03-20T13:36:53;94020.44;;;19.86;31.43